Riviera Beach, Texas
Current Conditions -  °F | °C
As of 3:56 PM on Thursday 23 Oct 2014 (Local Time) from KNQI Reporting Station
Scattered Clouds Scattered Clouds  
Wind Chill: 85°   Ceiling: Unl
Heat Index: 86°   Visibility: 10mi
Dew Point: 63°   Wind: 10mph
Humidity: 48%   Direction: 50°NE
Pressure: 30.03"   Gusts: NA
Location:  27.3193°N, 97.8839°W
Report Text: KNQI 232056Z 05009KT 10SM FEW045 FEW140 SCT250 29/17 A3003 RMK AO2 SLP166 T02940172 56023
Loading
Personal Weather Stations






























Interactive Weather Map
Tropical Storm Tracking
New forecast layout! Learn more

10-Day Weather Forecast

Advertisements
Track Severe Weather on mobile